Time;durP1;ratioP1;P1;durP2;ratioP2;P2;SDS_P1;SDS_P2;PMS_P1;PMS_P2;Temp;Humidity;BMP_temperature;BMP_pressure;BME280_temperature;BME280_humidity;BME280_pressure;Samples;Min_cycle;Max_cycle;Signal;HPM_P1;HPM_P2
2022/05/27 00:01:45;;;;;;;12.48;3.10;;;;;;;;;;5052796;28;20025;-63
2022/05/27 00:04:11;;;;;;;11.50;2.42;;;;;;;;;;5053410;28;20071;-63
2022/05/27 00:06:37;;;;;;;7.10;2.60;;;;;;;;;;5053703;28;20107;-63
2022/05/27 00:09:04;;;;;;;14.50;2.88;;;;;;;;;;5053807;28;20028;-63
2022/05/27 00:11:30;;;;;;;9.00;2.58;;;;;;;;;;5053077;28;20033;-63
2022/05/27 00:13:56;;;;;;;13.18;3.25;;;;;;;;;;5051657;28;20104;-63
2022/05/27 00:16:22;;;;;;;11.55;2.78;;;;;;;;;;5056950;28;20029;-63
2022/05/27 00:18:48;;;;;;;10.70;2.95;;;;;;;;;;5064582;28;20037;-63
2022/05/27 00:21:14;;;;;;;14.57;3.25;;;;;;;;;;5053783;28;20080;-63
2022/05/27 00:23:40;;;;;;;9.77;2.72;;;;;;;;;;5056836;28;20025;-63
2022/05/27 00:26:07;;;;;;;18.95;3.40;;;;;;;;;;5058495;28;20044;-63
2022/05/27 00:28:33;;;;;;;8.75;2.70;;;;;;;;;;5052869;28;20033;-64
2022/05/27 00:31:00;;;;;;;11.70;2.50;;;;;;;;;;5061201;28;20051;-64
2022/05/27 00:33:26;;;;;;;14.77;2.70;;;;;;;;;;5059637;28;20028;-63
2022/05/27 00:35:52;;;;;;;15.82;2.58;;;;;;;;;;5052748;28;20028;-64
2022/05/27 00:38:18;;;;;;;11.57;3.03;;;;;;;;;;5053061;28;20074;-63
2022/05/27 00:40:46;;;;;;;10.75;2.75;;;;;;;;;;5052339;28;20025;-64
2022/05/27 00:43:13;;;;;;;11.10;2.72;;;;;;;;;;5052616;28;20021;-64
2022/05/27 00:45:40;;;;;;;8.50;2.95;;;;;;;;;;5052812;28;20481;-64
2022/05/27 00:48:08;;;;;;;11.23;2.63;;;;;;;;;;5052447;28;20147;-63
2022/05/27 00:50:36;;;;;;;9.80;2.70;;;;;;;;;;5052636;28;20096;-63
2022/05/27 00:53:04;;;;;;;9.32;2.40;;;;;;;;;;5052367;28;20028;-63
2022/05/27 00:55:32;;;;;;;10.95;3.78;;;;;;;;;;5052570;28;20108;-63
2022/05/27 00:58:09;;;;;;;13.40;3.60;;;;;;;;;;5052101;28;20044;-64
2022/05/27 01:00:36;;;;;;;13.27;3.38;;;;;;;;;;5052642;28;20036;-63
2022/05/27 01:03:03;;;;;;;12.77;3.13;;;;;;;;;;5056261;28;20028;-63
2022/05/27 01:05:29;;;;;;;11.52;2.90;;;;;;;;;;5052495;28;20029;-63
2022/05/27 01:08:01;;;;;;;14.25;2.75;;;;;;;;;;5051300;28;20040;-63
2022/05/27 01:10:28;;;;;;;12.50;2.90;;;;;;;;;;5052124;28;20032;-63
2022/05/27 01:13:02;;;;;;;16.25;3.05;;;;;;;;;;5052398;28;20025;-63
2022/05/27 01:15:37;;;;;;;13.95;3.20;;;;;;;;;;5051864;28;20095;-63
2022/05/27 01:18:09;;;;;;;10.25;3.33;;;;;;;;;;5051935;28;20128;-63
2022/05/27 01:20:42;;;;;;;12.63;2.97;;;;;;;;;;5060469;28;20120;-64
2022/05/27 01:23:08;;;;;;;;;;;;;;;;;;5053107;28;20036;-63
2022/05/27 01:25:43;;;;;;;13.60;2.75;;;;;;;;;;5056124;28;19904;-63
2022/05/27 01:28:20;;;;;;;13.15;2.63;;;;;;;;;;5053576;28;20037;-63
2022/05/27 01:30:54;;;;;;;10.40;2.78;;;;;;;;;;5051605;28;20041;-63
2022/05/27 01:33:28;;;;;;;16.10;3.25;;;;;;;;;;5051288;28;20098;-63
2022/05/27 01:35:54;;;;;;;16.92;3.13;;;;;;;;;;5051839;28;20064;-63
2022/05/27 01:38:23;;;;;;;10.40;3.00;;;;;;;;;;5051175;28;20063;-63
2022/05/27 01:40:52;;;;;;;11.60;2.85;;;;;;;;;;5054216;28;20146;-63
2022/05/27 01:43:22;;;;;;;12.00;2.67;;;;;;;;;;5051781;28;20033;-63
2022/05/27 01:45:54;;;;;;;12.63;2.88;;;;;;;;;;5051407;28;20063;-64
2022/05/27 01:48:24;;;;;;;10.40;2.95;;;;;;;;;;5051165;28;20025;-63
2022/05/27 01:50:53;;;;;;;14.55;3.53;;;;;;;;;;5046504;28;20100;-63
2022/05/27 01:53:24;;;;;;;14.98;2.78;;;;;;;;;;5041809;28;20537;-63
2022/05/27 01:56:19;;;;;;;13.10;2.88;;;;;;;;;;5051599;28;20048;-63
2022/05/27 01:58:51;;;;;;;18.90;3.10;;;;;;;;;;5043019;28;20493;-63
2022/05/27 02:01:26;;;;;;;7.50;2.67;;;;;;;;;;5051069;28;20504;-64
2022/05/27 02:03:55;;;;;;;19.52;3.53;;;;;;;;;;5055875;28;20031;-63
2022/05/27 02:06:28;;;;;;;9.13;2.40;;;;;;;;;;5051825;28;20014;-63
2022/05/27 02:08:57;;;;;;;10.52;2.97;;;;;;;;;;5051867;28;20113;-63
2022/05/27 02:11:24;;;;;;;12.90;2.78;;;;;;;;;;5051015;28;20025;-63
2022/05/27 02:13:53;;;;;;;13.52;2.65;;;;;;;;;;5051785;28;20459;-64
2022/05/27 02:16:21;;;;;;;8.63;3.08;;;;;;;;;;5050885;28;20112;-64
2022/05/27 02:18:52;;;;;;;14.15;3.47;;;;;;;;;;5057149;28;20029;-64
2022/05/27 02:21:21;;;;;;;9.95;3.20;;;;;;;;;;5059731;28;20029;-63
2022/05/27 02:24:16;;;;;;;11.10;3.20;;;;;;;;;;5057891;28;20036;-63
2022/05/27 02:26:46;;;;;;;12.75;2.95;;;;;;;;;;5048919;28;20047;-63
2022/05/27 02:29:14;;;;;;;15.57;3.38;;;;;;;;;;5051319;28;20033;-63
2022/05/27 02:31:43;;;;;;;11.85;3.88;;;;;;;;;;5051574;28;20104;-63
2022/05/27 02:37:00;;;;;;;7.50;2.95;;;;;;;;;;5052394;28;20064;-63
2022/05/27 02:39:26;;;;;;;13.52;3.28;;;;;;;;;;5054573;28;20025;-63
2022/05/27 02:42:10;;;;;;;12.05;2.75;;;;;;;;;;5055206;28;20033;-64
2022/05/27 02:44:45;;;;;;;13.68;3.50;;;;;;;;;;5054845;28;20037;-64
2022/05/27 02:47:28;;;;;;;10.13;1.90;;;;;;;;;;5054924;28;20032;-63
2022/05/27 02:50:18;;;;;;;7.53;1.77;;;;;;;;;;5054930;28;20508;-63
2022/05/27 02:52:53;;;;;;;10.55;2.08;;;;;;;;;;5054840;28;20029;-63
2022/05/27 02:55:31;;;;;;;4.22;1.90;;;;;;;;;;5055017;28;20033;-64
2022/05/27 02:58:02;;;;;;;6.53;1.77;;;;;;;;;;5055612;28;20152;-63
2022/05/27 03:00:30;;;;;;;10.63;1.98;;;;;;;;;;5054351;28;20033;-64
2022/05/27 03:03:00;;;;;;;10.38;2.53;;;;;;;;;;5055046;28;20106;-63
2022/05/27 03:05:28;;;;;;;10.45;2.17;;;;;;;;;;5053964;28;20043;-63
2022/05/27 03:07:56;;;;;;;11.40;2.60;;;;;;;;;;5055012;28;20497;-64
2022/05/27 03:10:22;;;;;;;10.63;2.55;;;;;;;;;;5054020;28;20060;-63
2022/05/27 03:12:54;;;;;;;12.73;3.10;;;;;;;;;;5054585;28;20071;-63
2022/05/27 03:15:39;;;;;;;14.25;2.90;;;;;;;;;;5054266;28;20112;-63
2022/05/27 03:18:11;;;;;;;12.48;2.88;;;;;;;;;;5049610;28;20450;-63
2022/05/27 03:20:57;;;;;;;15.80;3.35;;;;;;;;;;5054359;28;20047;-63
2022/05/27 03:23:44;;;;;;;13.13;2.95;;;;;;;;;;5054121;28;20017;-63
2022/05/27 03:26:21;;;;;;;10.60;2.40;;;;;;;;;;5062904;28;20032;-63
2022/05/27 03:29:06;;;;;;;8.65;3.10;;;;;;;;;;5053776;28;20033;-64
2022/05/27 03:31:46;;;;;;;15.52;3.42;;;;;;;;;;5054277;28;20036;-64
2022/05/27 03:34:21;;;;;;;16.02;2.95;;;;;;;;;;5053640;28;20520;-63
2022/05/27 03:37:07;;;;;;;14.07;3.00;;;;;;;;;;5054013;28;20033;-63
2022/05/27 03:39:40;;;;;;;16.30;3.20;;;;;;;;;;5053934;28;20037;-64
2022/05/27 03:42:11;;;;;;;13.70;3.17;;;;;;;;;;5053719;28;20119;-64
2022/05/27 03:44:37;;;;;;;16.98;3.67;;;;;;;;;;5053300;28;20057;-63
2022/05/27 03:47:04;;;;;;;20.30;3.72;;;;;;;;;;5053475;28;20044;-64
2022/05/27 03:49:30;;;;;;;16.85;3.10;;;;;;;;;;5053567;28;20032;-63
2022/05/27 03:51:56;;;;;;;12.10;3.38;;;;;;;;;;5053637;28;20423;-63
2022/05/27 03:54:22;;;;;;;15.57;3.80;;;;;;;;;;5053967;28;20029;-63
2022/05/27 03:56:49;;;;;;;18.10;4.68;;;;;;;;;;5053168;28;20044;-63
2022/05/27 03:59:16;;;;;;;18.67;3.88;;;;;;;;;;5054122;28;20424;-64
2022/05/27 04:01:43;;;;;;;12.35;3.30;;;;;;;;;;5049625;28;20404;-63
2022/05/27 04:04:10;;;;;;;10.80;3.28;;;;;;;;;;5049765;28;20519;-63
2022/05/27 04:06:36;;;;;;;17.77;3.53;;;;;;;;;;5056331;28;20093;-63
2022/05/27 04:09:03;;;;;;;9.70;2.70;;;;;;;;;;5042824;28;20068;-63
2022/05/27 04:11:30;;;;;;;15.50;4.05;;;;;;;;;;5040945;28;20025;-63
2022/05/27 04:13:56;;;;;;;16.63;3.80;;;;;;;;;;5053878;28;20112;-63
2022/05/27 04:16:23;;;;;;;10.70;3.30;;;;;;;;;;5049260;28;20025;-64
2022/05/27 04:18:49;;;;;;;14.63;3.60;;;;;;;;;;5053496;28;20029;-63
2022/05/27 04:21:15;;;;;;;13.68;3.70;;;;;;;;;;5053118;28;20381;-63
2022/05/27 04:23:42;;;;;;;8.25;2.67;;;;;;;;;;5054526;28;20083;-63
2022/05/27 04:26:08;;;;;;;18.08;4.18;;;;;;;;;;5048820;28;20025;-63
2022/05/27 04:28:35;;;;;;;16.85;3.00;;;;;;;;;;5050138;28;20082;-63
2022/05/27 04:31:01;;;;;;;9.40;3.05;;;;;;;;;;5057650;28;20021;-63
2022/05/27 04:33:27;;;;;;;12.23;2.90;;;;;;;;;;5053594;28;20033;-63
2022/05/27 04:35:54;;;;;;;10.52;3.10;;;;;;;;;;5049540;28;20033;-63
2022/05/27 04:38:24;;;;;;;9.43;2.95;;;;;;;;;;5053021;28;20035;-63
2022/05/27 04:40:50;;;;;;;7.32;2.65;;;;;;;;;;5052901;28;20473;-63
2022/05/27 04:43:17;;;;;;;9.85;2.50;;;;;;;;;;5048283;28;20044;-63
2022/05/27 04:45:43;;;;;;;12.52;3.13;;;;;;;;;;5052955;28;20120;-63
2022/05/27 04:48:10;;;;;;;12.63;2.85;;;;;;;;;;5052163;28;20033;-63
2022/05/27 04:50:37;;;;;;;6.97;2.10;;;;;;;;;;5049444;28;20024;-63
2022/05/27 04:53:03;;;;;;;7.93;2.58;;;;;;;;;;5052936;28;20068;-63
2022/05/27 04:55:30;;;;;;;10.32;2.97;;;;;;;;;;5048847;28;20017;-63
2022/05/27 04:57:59;;;;;;;7.28;2.58;;;;;;;;;;5048217;28;20040;-63
2022/05/27 05:00:34;;;;;;;8.98;2.80;;;;;;;;;;5052386;28;20423;-63
2022/05/27 05:03:00;;;;;;;11.90;3.15;;;;;;;;;;5054496;28;20362;-63
2022/05/27 05:05:27;;;;;;;7.35;3.05;;;;;;;;;;5053012;28;21557;-63
2022/05/27 05:07:58;;;;;;;13.07;3.28;;;;;;;;;;5052477;28;20534;-63
2022/05/27 05:10:24;;;;;;;9.77;2.83;;;;;;;;;;5052198;28;20075;-63
2022/05/27 05:12:51;;;;;;;9.40;2.95;;;;;;;;;;5067548;28;20035;-63
2022/05/27 05:15:18;;;;;;;5.32;2.38;;;;;;;;;;5050576;28;20515;-63
2022/05/27 05:17:44;;;;;;;9.52;2.83;;;;;;;;;;5047730;28;20021;-63
2022/05/27 05:20:13;;;;;;;7.38;2.65;;;;;;;;;;5052213;28;20028;-64
2022/05/27 05:22:39;;;;;;;10.20;2.78;;;;;;;;;;5052526;28;20579;-63
2022/05/27 05:25:06;;;;;;;6.20;2.15;;;;;;;;;;5050843;28;20029;-63
2022/05/27 05:27:33;;;;;;;8.38;2.40;;;;;;;;;;5051313;28;20033;-64
2022/05/27 05:30:00;;;;;;;4.93;2.08;;;;;;;;;;5051101;28;20110;-64
2022/05/27 05:32:26;;;;;;;5.57;2.33;;;;;;;;;;5051924;28;20025;-64
2022/05/27 05:34:52;;;;;;;4.25;1.58;;;;;;;;;;5052059;28;20024;-64
2022/05/27 05:37:18;;;;;;;4.80;1.60;;;;;;;;;;5050392;28;20021;-64
2022/05/27 05:39:45;;;;;;;2.78;1.30;;;;;;;;;;5049734;28;20493;-64
2022/05/27 05:42:11;;;;;;;3.45;1.67;;;;;;;;;;5051918;28;20041;-64
2022/05/27 05:44:37;;;;;;;6.93;1.58;;;;;;;;;;5053585;28;20060;-64
2022/05/27 05:47:03;;;;;;;4.22;1.42;;;;;;;;;;5050833;28;20027;-64
2022/05/27 05:49:30;;;;;;;5.18;1.55;;;;;;;;;;5052054;28;20457;-64
2022/05/27 05:51:58;;;;;;;2.63;1.33;;;;;;;;;;5050793;28;20477;-64
2022/05/27 05:54:26;;;;;;;3.90;1.50;;;;;;;;;;5052668;28;20448;-65
2022/05/27 05:56:52;;;;;;;3.33;1.60;;;;;;;;;;5052305;28;20045;-65
2022/05/27 05:59:19;;;;;;;3.00;1.50;;;;;;;;;;5047174;28;20477;-65
2022/05/27 06:01:45;;;;;;;5.53;1.83;;;;;;;;;;5049243;28;20108;-65
2022/05/27 06:04:11;;;;;;;4.75;1.50;;;;;;;;;;5050570;28;20374;-65
2022/05/27 06:06:38;;;;;;;3.85;1.67;;;;;;;;;;5050405;28;20389;-65
2022/05/27 06:09:05;;;;;;;4.45;1.60;;;;;;;;;;5050078;28;20032;-65
2022/05/27 06:11:31;;;;;;;6.03;1.60;;;;;;;;;;5051200;28;20017;-65
2022/05/27 06:13:57;;;;;;;6.10;2.15;;;;;;;;;;5052636;28;20036;-65
2022/05/27 06:16:23;;;;;;;4.95;2.15;;;;;;;;;;5054645;28;20063;-65
2022/05/27 06:18:50;;;;;;;7.35;2.05;;;;;;;;;;5052542;28;20079;-65
2022/05/27 06:21:16;;;;;;;6.35;2.60;;;;;;;;;;5054659;28;20040;-65
2022/05/27 06:23:44;;;;;;;5.75;2.30;;;;;;;;;;5055120;28;20056;-65
2022/05/27 06:26:11;;;;;;;5.88;2.30;;;;;;;;;;5052588;28;20444;-65
2022/05/27 06:34:26;;;;;;;4.97;1.30;;;;;;;;;;5051897;28;20037;-65
2022/05/27 06:37:03;;;;;;;5.18;1.50;;;;;;;;;;5047063;28;23201;-65
2022/05/27 06:39:30;;;;;;;2.13;1.33;;;;;;;;;;5072597;28;20477;-65
2022/05/27 06:41:56;;;;;;;3.63;1.27;;;;;;;;;;5052177;28;20071;-65
2022/05/27 06:44:30;;;;;;;1.85;0.98;;;;;;;;;;5075423;28;20124;-65
2022/05/27 06:46:57;;;;;;;3.03;1.00;;;;;;;;;;5052371;28;20028;-65
2022/05/27 06:49:23;;;;;;;1.65;1.00;;;;;;;;;;5050870;28;20393;-65
2022/05/27 06:51:50;;;;;;;4.18;1.55;;;;;;;;;;5051481;28;20044;-65
2022/05/27 06:54:17;;;;;;;4.22;1.25;;;;;;;;;;5050634;28;20108;-65
2022/05/27 06:56:44;;;;;;;3.97;1.23;;;;;;;;;;5050269;28;20069;-65
2022/05/27 06:59:11;;;;;;;4.97;1.20;;;;;;;;;;5051737;28;20048;-65
2022/05/27 07:01:37;;;;;;;3.20;1.10;;;;;;;;;;5050615;28;20029;-65
2022/05/27 07:04:04;;;;;;;3.90;1.15;;;;;;;;;;5040109;28;20100;-65
2022/05/27 07:06:37;;;;;;;3.75;1.08;;;;;;;;;;5041415;28;20052;-66
2022/05/27 07:09:05;;;;;;;2.55;1.30;;;;;;;;;;5034434;28;20029;-65
2022/05/27 07:11:31;;;;;;;5.30;1.20;;;;;;;;;;5036004;28;20120;-65
2022/05/27 07:13:58;;;;;;;2.22;1.10;;;;;;;;;;5037883;28;20124;-65
2022/05/27 07:16:24;;;;;;;1.70;1.38;;;;;;;;;;5035872;28;20029;-66
2022/05/27 07:18:50;;;;;;;2.90;0.90;;;;;;;;;;5035458;28;20432;-73
2022/05/27 07:21:16;;;;;;;3.03;0.98;;;;;;;;;;5035834;28;20473;-74
2022/05/27 07:23:44;;;;;;;2.10;1.23;;;;;;;;;;5035764;28;20021;-73
2022/05/27 07:26:10;;;;;;;2.42;0.80;;;;;;;;;;5037385;28;20474;-70
2022/05/27 07:28:36;;;;;;;3.10;1.02;;;;;;;;;;5034558;28;20453;-74
2022/05/27 07:31:02;;;;;;;1.60;0.80;;;;;;;;;;5048973;28;20044;-68
2022/05/27 07:33:29;;;;;;;1.17;0.60;;;;;;;;;;5046840;28;20037;-68
2022/05/27 07:35:55;;;;;;;1.27;0.80;;;;;;;;;;5053003;28;20070;-68
2022/05/27 07:38:22;;;;;;;2.20;0.55;;;;;;;;;;5048251;28;20021;-68
2022/05/27 07:40:48;;;;;;;3.65;0.88;;;;;;;;;;5050343;28;20075;-68
2022/05/27 07:43:14;;;;;;;3.33;0.90;;;;;;;;;;5053015;28;20025;-68
2022/05/27 07:45:42;;;;;;;2.75;1.10;;;;;;;;;;5052318;28;20374;-68
2022/05/27 07:48:08;;;;;;;1.48;0.93;;;;;;;;;;5052718;28;20029;-69
2022/05/27 07:50:35;;;;;;;2.60;1.05;;;;;;;;;;5051672;28;20107;-69
2022/05/27 07:53:01;;;;;;;3.53;1.20;;;;;;;;;;5052452;28;20030;-69
2022/05/27 07:55:28;;;;;;;4.30;1.10;;;;;;;;;;5051488;28;20021;-68
2022/05/27 07:57:54;;;;;;;2.28;0.80;;;;;;;;;;5050803;28;20047;-69
2022/05/27 08:00:23;;;;;;;2.50;0.65;;;;;;;;;;5049192;28;20442;-68
2022/05/27 08:02:49;;;;;;;1.42;1.10;;;;;;;;;;5046675;28;20028;-68
2022/05/27 08:05:20;;;;;;;1.90;1.45;;;;;;;;;;5044793;28;20033;-68
2022/05/27 08:07:46;;;;;;;3.92;0.93;;;;;;;;;;5044701;28;20025;-68
2022/05/27 08:10:14;;;;;;;2.55;1.05;;;;;;;;;;5046210;28;20041;-68
2022/05/27 08:12:40;;;;;;;6.57;1.60;;;;;;;;;;5045208;28;20036;-67
2022/05/27 08:15:08;;;;;;;2.58;1.15;;;;;;;;;;5045474;28;20034;-66
2022/05/27 08:17:35;;;;;;;2.08;1.25;;;;;;;;;;5042054;28;20404;-67
2022/05/27 08:20:01;;;;;;;7.30;1.48;;;;;;;;;;5046619;28;20055;-67
2022/05/27 08:22:27;;;;;;;2.55;1.35;;;;;;;;;;5045231;28;20065;-67
2022/05/27 08:24:53;;;;;;;3.30;1.45;;;;;;;;;;5046933;28;20036;-67
2022/05/27 08:27:19;;;;;;;5.60;1.45;;;;;;;;;;5047010;28;20033;-67
2022/05/27 08:29:45;;;;;;;4.15;1.40;;;;;;;;;;5045648;28;20381;-67
2022/05/27 08:32:11;;;;;;;3.47;1.60;;;;;;;;;;5047421;28;20021;-68
2022/05/27 08:40:30;;;;;;;4.72;2.00;;;;;;;;;;5024058;28;20541;-67
2022/05/27 08:42:56;;;;;;;5.43;1.98;;;;;;;;;;5020464;28;20070;-67
2022/05/27 08:45:26;;;;;;;4.60;2.00;;;;;;;;;;5013640;28;20041;-67
2022/05/27 08:47:56;;;;;;;6.07;2.00;;;;;;;;;;5015804;28;20045;-67
2022/05/27 08:50:45;;;;;;;6.22;2.10;;;;;;;;;;5020181;28;20065;-67
2022/05/27 08:53:20;;;;;;;9.65;2.50;;;;;;;;;;5013261;28;20061;-67
2022/05/27 09:01:31;;;;;;;5.50;2.50;;;;;;;;;;5012121;28;20120;-67
2022/05/27 09:04:20;;;;;;;6.63;2.08;;;;;;;;;;5010881;28;20486;-69
2022/05/27 09:06:49;;;;;;;6.63;2.67;;;;;;;;;;5018663;28;20029;-73
2022/05/27 09:09:20;;;;;;;9.32;2.70;;;;;;;;;;5011503;28;20502;-68
2022/05/27 09:11:52;;;;;;;7.40;2.53;;;;;;;;;;5017802;28;20041;-69
2022/05/27 09:14:21;;;;;;;4.70;2.15;;;;;;;;;;5031087;28;20139;-68
2022/05/27 09:16:58;;;;;;;6.65;2.47;;;;;;;;;;5046420;28;20041;-68
2022/05/27 09:19:29;;;;;;;9.90;3.65;;;;;;;;;;5039540;28;20440;-65
2022/05/27 09:22:06;;;;;;;9.10;2.70;;;;;;;;;;5046320;28;20049;-67
2022/05/27 09:24:36;;;;;;;7.10;3.92;;;;;;;;;;5044502;28;20048;-67
2022/05/27 09:27:21;;;;;;;11.02;3.50;;;;;;;;;;5039713;28;20040;-67
2022/05/27 09:29:59;;;;;;;6.88;2.60;;;;;;;;;;5041332;28;20408;-68
2022/05/27 09:32:31;;;;;;;5.63;2.40;;;;;;;;;;5044661;28;20043;-68
2022/05/27 09:35:02;;;;;;;7.13;1.90;;;;;;;;;;5038005;28;20017;-68
2022/05/27 09:37:43;;;;;;;6.65;2.40;;;;;;;;;;5047745;28;20482;-68
2022/05/27 09:40:20;;;;;;;3.83;2.10;;;;;;;;;;5050532;28;20021;-67
2022/05/27 09:43:04;;;;;;;10.35;2.30;;;;;;;;;;5041832;28;20025;-67
2022/05/27 09:45:30;;;;;;;6.20;2.63;;;;;;;;;;5042726;28;20052;-67
2022/05/27 09:47:58;;;;;;;5.28;2.70;;;;;;;;;;5043466;28;20082;-67
2022/05/27 09:50:26;;;;;;;5.28;2.30;;;;;;;;;;5045654;28;20037;-67
2022/05/27 09:52:55;;;;;;;4.72;2.00;;;;;;;;;;5048158;28;20025;-67
2022/05/27 09:55:43;;;;;;;5.22;2.05;;;;;;;;;;5048304;28;20029;-67
2022/05/27 09:58:10;;;;;;;4.82;2.00;;;;;;;;;;5048959;28;20091;-67
2022/05/27 10:00:49;;;;;;;6.32;2.25;;;;;;;;;;5046086;28;20021;-67
2022/05/27 10:03:21;;;;;;;10.95;1.83;;;;;;;;;;5042600;28;20436;-67
2022/05/27 10:05:51;;;;;;;5.28;2.00;;;;;;;;;;5039448;28;20032;-68
2022/05/27 10:08:47;;;;;;;4.93;2.15;;;;;;;;;;5044709;28;20106;-67
2022/05/27 10:11:23;;;;;;;5.45;2.05;;;;;;;;;;5033146;28;20037;-67
2022/05/27 10:13:50;;;;;;;6.25;2.05;;;;;;;;;;5034196;28;20028;-67
2022/05/27 10:16:26;;;;;;;8.27;2.80;;;;;;;;;;5040218;28;20418;-67
2022/05/27 10:19:06;;;;;;;7.85;2.00;;;;;;;;;;5046238;28;20053;-67
2022/05/27 10:21:33;;;;;;;6.72;1.95;;;;;;;;;;5042328;28;20040;-68
2022/05/27 10:24:13;;;;;;;4.07;1.65;;;;;;;;;;5038787;28;20010;-69
2022/05/27 10:26:39;;;;;;;12.63;2.10;;;;;;;;;;5033174;28;20023;-67
2022/05/27 10:29:10;;;;;;;8.88;2.40;;;;;;;;;;5034249;28;20036;-68
2022/05/27 10:31:36;;;;;;;4.15;1.65;;;;;;;;;;5043046;28;20116;-68
2022/05/27 10:34:03;;;;;;;3.58;1.45;;;;;;;;;;5048505;28;20036;-69
2022/05/27 10:36:35;;;;;;;3.53;1.50;;;;;;;;;;5048574;28;20017;-69
2022/05/27 10:39:09;;;;;;;6.32;2.25;;;;;;;;;;5042801;28;20076;-69
2022/05/27 10:41:44;;;;;;;7.97;2.05;;;;;;;;;;5040591;28;20033;-69
2022/05/27 10:44:31;;;;;;;6.47;2.33;;;;;;;;;;5041966;28;20489;-69
2022/05/27 10:46:58;;;;;;;6.68;2.42;;;;;;;;;;5047140;28;20389;-69
2022/05/27 10:49:47;;;;;;;5.05;1.90;;;;;;;;;;5041437;28;20013;-69
2022/05/27 10:52:14;;;;;;;6.20;1.75;;;;;;;;;;5044837;28;20037;-69
2022/05/27 10:54:55;;;;;;;7.75;1.70;;;;;;;;;;5044945;28;20448;-69
2022/05/27 11:03:07;;;;;;;13.73;2.35;;;;;;;;;;5047338;28;20116;-69
2022/05/27 11:05:42;;;;;;;5.47;2.22;;;;;;;;;;5047760;28;20029;-69
2022/05/27 11:08:11;;;;;;;8.68;1.98;;;;;;;;;;5049169;28;20029;-70
2022/05/27 11:10:51;;;;;;;4.68;2.10;;;;;;;;;;5049740;28;20489;-70
2022/05/27 11:16:26;;;;;;;3.03;1.80;;;;;;;;;;5045266;28;20033;-71
2022/05/27 11:19:12;;;;;;;5.30;1.75;;;;;;;;;;5044327;28;20029;-71
2022/05/27 11:21:53;;;;;;;5.22;1.42;;;;;;;;;;5043478;28;20068;-71
2022/05/27 11:24:30;;;;;;;5.60;1.48;;;;;;;;;;5049218;28;20367;-71
2022/05/27 11:27:15;;;;;;;4.25;1.30;;;;;;;;;;5045517;28;20021;-70
2022/05/27 11:29:42;;;;;;;3.67;1.30;;;;;;;;;;5044964;28;20102;-70
2022/05/27 11:32:08;;;;;;;5.18;1.75;;;;;;;;;;5049888;28;20119;-70
2022/05/27 11:34:41;;;;;;;2.22;1.38;;;;;;;;;;5047062;28;20111;-70
2022/05/27 11:37:07;;;;;;;;;;;;;;;;;;5047506;28;20013;-70
2022/05/27 11:39:50;;;;;;;5.22;1.63;;;;;;;;;;5048108;28;19912;-71
2022/05/27 11:42:35;;;;;;;4.28;1.50;;;;;;;;;;5044162;28;20021;-70
2022/05/27 11:45:06;;;;;;;6.03;1.60;;;;;;;;;;5042286;28;20460;-70
2022/05/27 11:47:32;;;;;;;3.85;1.50;;;;;;;;;;5044772;28;20032;-70
2022/05/27 11:50:04;;;;;;;4.85;1.30;;;;;;;;;;5044866;28;20028;-70
2022/05/27 11:52:40;;;;;;;5.07;1.50;;;;;;;;;;5044371;28;20029;-70
2022/05/27 11:55:09;;;;;;;3.15;1.40;;;;;;;;;;5041468;28;20063;-68
2022/05/27 11:57:53;;;;;;;4.50;1.88;;;;;;;;;;5042141;28;20033;-68
2022/05/27 12:00:22;;;;;;;4.53;1.92;;;;;;;;;;5051448;28;20017;-68
2022/05/27 12:02:48;;;;;;;3.33;1.42;;;;;;;;;;5052530;28;20112;-68
2022/05/27 12:05:19;;;;;;;4.43;1.88;;;;;;;;;;5052664;28;20032;-67
2022/05/27 12:07:51;;;;;;;7.80;2.08;;;;;;;;;;5051789;28;20087;-68
2022/05/27 12:10:40;;;;;;;4.35;1.45;;;;;;;;;;5051436;28;20035;-68
2022/05/27 12:13:06;;;;;;;5.63;1.73;;;;;;;;;;5049147;28;20036;-68
2022/05/27 12:15:32;;;;;;;7.28;1.85;;;;;;;;;;5051716;28;20397;-68
2022/05/27 12:17:59;;;;;;;5.25;2.10;;;;;;;;;;5050352;28;20020;-68
2022/05/27 12:20:28;;;;;;;4.47;1.73;;;;;;;;;;5047692;28;20024;-68
2022/05/27 12:22:55;;;;;;;5.15;2.35;;;;;;;;;;5048542;28;20120;-67
2022/05/27 12:25:33;;;;;;;5.60;1.90;;;;;;;;;;5047950;28;20025;-68
2022/05/27 12:28:01;;;;;;;4.50;2.03;;;;;;;;;;5050392;28;20443;-68
2022/05/27 12:30:45;;;;;;;7.95;1.95;;;;;;;;;;5050833;28;20033;-68
2022/05/27 12:33:13;;;;;;;6.47;1.90;;;;;;;;;;5050584;28;20476;-68
2022/05/27 12:35:40;;;;;;;7.38;2.30;;;;;;;;;;5048915;28;20017;-68
2022/05/27 12:38:10;;;;;;;4.22;1.85;;;;;;;;;;5050668;28;20083;-68
2022/05/27 12:40:54;;;;;;;6.85;2.35;;;;;;;;;;5051336;28;20088;-68
2022/05/27 12:43:20;;;;;;;4.57;1.92;;;;;;;;;;5051222;28;20033;-68
2022/05/27 12:45:48;;;;;;;3.22;1.50;;;;;;;;;;5050835;28;20025;-68
2022/05/27 12:48:29;;;;;;;4.35;1.92;;;;;;;;;;5048284;28;20033;-68
2022/05/27 12:50:57;;;;;;;4.70;2.05;;;;;;;;;;5050731;28;20021;-68
2022/05/27 12:53:36;;;;;;;12.43;2.33;;;;;;;;;;5050735;28;20017;-68
2022/05/27 13:02:14;;;;;;;3.90;1.80;;;;;;;;;;5049367;28;20028;-68
2022/05/27 13:04:45;;;;;;;5.17;1.43;;;;;;;;;;5048515;28;20031;-68
2022/05/27 13:07:12;;;;;;;9.43;2.17;;;;;;;;;;5046564;28;20033;-68
2022/05/27 13:09:42;;;;;;;3.97;1.63;;;;;;;;;;5050334;28;20520;-68
2022/05/27 13:12:10;;;;;;;7.88;1.70;;;;;;;;;;5049910;28;20029;-68
2022/05/27 13:14:42;;;;;;;6.78;1.50;;;;;;;;;;5049799;28;20103;-68
2022/05/27 13:17:11;;;;;;;4.57;1.53;;;;;;;;;;5050480;28;20055;-68
2022/05/27 13:19:44;;;;;;;7.43;1.67;;;;;;;;;;5050309;28;20129;-68
2022/05/27 13:22:11;;;;;;;5.40;1.75;;;;;;;;;;5049569;28;20036;-68
2022/05/27 13:24:42;;;;;;;9.27;2.13;;;;;;;;;;5050344;28;20079;-68
2022/05/27 13:27:26;;;;;;;7.43;1.92;;;;;;;;;;5050322;28;20473;-68
2022/05/27 13:29:59;;;;;;;7.75;1.80;;;;;;;;;;5049831;28;20021;-68
2022/05/27 13:32:27;;;;;;;7.10;1.73;;;;;;;;;;5049375;28;20060;-68
2022/05/27 13:34:56;;;;;;;6.68;2.08;;;;;;;;;;5051503;28;20048;-68
2022/05/27 13:37:31;;;;;;;7.22;1.70;;;;;;;;;;5047783;28;20039;-68
2022/05/27 13:40:03;;;;;;;4.55;2.13;;;;;;;;;;5050174;28;20031;-68
2022/05/27 13:42:31;;;;;;;6.88;1.80;;;;;;;;;;5049165;28;20037;-68
2022/05/27 13:45:00;;;;;;;12.55;2.30;;;;;;;;;;5050339;28;20535;-68
2022/05/27 13:47:27;;;;;;;9.38;2.20;;;;;;;;;;5050870;28;20029;-68
2022/05/27 13:49:54;;;;;;;5.30;2.30;;;;;;;;;;5051385;28;20024;-68
2022/05/27 13:52:22;;;;;;;8.00;1.92;;;;;;;;;;5047578;28;20059;-68
2022/05/27 13:54:59;;;;;;;11.20;2.25;;;;;;;;;;5048612;28;20029;-68
2022/05/27 13:57:30;;;;;;;6.97;1.85;;;;;;;;;;5045841;28;20088;-68
2022/05/27 13:59:58;;;;;;;8.70;2.00;;;;;;;;;;5051514;28;20029;-68
2022/05/27 14:02:26;;;;;;;8.30;1.75;;;;;;;;;;5047221;28;20040;-68
2022/05/27 14:04:54;;;;;;;9.95;2.30;;;;;;;;;;5049503;28;20028;-68
2022/05/27 14:07:22;;;;;;;7.78;2.13;;;;;;;;;;5047614;28;20036;-69
2022/05/27 14:09:50;;;;;;;15.15;2.30;;;;;;;;;;5040577;28;20064;-68
2022/05/27 14:12:19;;;;;;;4.97;1.42;;;;;;;;;;5046646;28;20027;-68
2022/05/27 14:14:46;;;;;;;10.60;1.80;;;;;;;;;;5045533;28;20473;-68
2022/05/27 14:17:17;;;;;;;9.52;2.33;;;;;;;;;;5041456;28;20382;-69
2022/05/27 14:19:44;;;;;;;6.68;1.55;;;;;;;;;;5044222;28;20100;-68
2022/05/27 14:25:04;;;;;;;9.00;2.17;;;;;;;;;;5040007;28;20377;-69
2022/05/27 14:27:31;;;;;;;5.25;1.50;;;;;;;;;;5039800;28;20112;-68
2022/05/27 14:30:02;;;;;;;6.97;1.77;;;;;;;;;;5041724;28;20094;-68
2022/05/27 14:32:54;;;;;;;6.38;1.90;;;;;;;;;;5041762;28;20048;-68
2022/05/27 14:35:46;;;;;;;3.60;1.83;;;;;;;;;;5044511;28;20393;-68
2022/05/27 14:38:20;;;;;;;5.20;2.00;;;;;;;;;;5051530;28;20017;-68
2022/05/27 14:40:50;;;;;;;6.70;1.70;;;;;;;;;;5045438;28;20053;-68
2022/05/27 14:43:24;;;;;;;5.95;2.42;;;;;;;;;;5047943;28;20033;-68
2022/05/27 14:45:54;;;;;;;7.70;2.35;;;;;;;;;;5049016;28;20052;-68
2022/05/27 14:48:22;;;;;;;10.32;1.98;;;;;;;;;;5043819;28;20037;-68
2022/05/27 14:50:48;;;;;;;5.45;2.53;;;;;;;;;;5045335;28;20420;-68
2022/05/27 14:53:16;;;;;;;8.68;2.40;;;;;;;;;;5051465;28;20045;-68
2022/05/27 14:55:42;;;;;;;11.90;2.42;;;;;;;;;;5040116;28;20092;-67
2022/05/27 14:58:09;;;;;;;9.40;2.33;;;;;;;;;;5045381;28;20521;-68
2022/05/27 15:00:41;;;;;;;9.20;2.08;;;;;;;;;;5044244;28;20033;-68
2022/05/27 15:03:26;;;;;;;11.30;2.22;;;;;;;;;;5049480;28;20070;-68
2022/05/27 15:05:53;;;;;;;9.63;1.98;;;;;;;;;;5041994;28;20087;-68
2022/05/27 15:08:19;;;;;;;8.48;2.35;;;;;;;;;;5048507;28;20029;-68
2022/05/27 15:11:02;;;;;;;6.55;2.42;;;;;;;;;;5048620;28;20021;-68
2022/05/27 15:13:43;;;;;;;7.13;2.28;;;;;;;;;;5044769;28;20036;-68
2022/05/27 15:16:10;;;;;;;9.85;2.88;;;;;;;;;;5041711;28;20017;-68
2022/05/27 15:18:45;;;;;;;9.48;2.22;;;;;;;;;;5045463;28;20017;-67
2022/05/27 15:21:14;;;;;;;9.80;2.30;;;;;;;;;;5042570;28;20040;-68
2022/05/27 15:23:45;;;;;;;7.28;1.90;;;;;;;;;;5045230;28;20493;-67
2022/05/27 15:34:36;;;;;;;18.08;4.32;;;;;;;;;;5042701;28;20035;-67
2022/05/27 15:37:02;;;;;;;7.45;2.38;;;;;;;;;;5045418;28;20434;-67
2022/05/27 15:39:29;;;;;;;7.22;2.45;;;;;;;;;;5034891;28;20044;-67
2022/05/27 15:41:56;;;;;;;7.03;1.80;;;;;;;;;;5042558;28;20106;-67
2022/05/27 15:44:22;;;;;;;6.80;1.77;;;;;;;;;;5043850;28;20025;-66
2022/05/27 15:46:48;;;;;;;7.95;2.03;;;;;;;;;;5045683;28;20112;-67